Brainerd Lakes Regional Airport Brainerd US
ICAO: KBRD
IATA: BRD
Category: Medium
Scheduled Services: Yes

Elevation: 1232 ft
TransAlt. 18000 ft.

Airport Communications:
ASOS:126.775
MINNEAPOLIS CNTR:118.05
PRINCETON RDO:123.65
CTAF/UNICOM:122.7

KBRD Zoom In..

Runways:

(A) RW 05 length 6512 ft width 150 ft
---- / hdg 51

(B) RW 16 length 7100 ft width 150 ft
---- / hdg 160

(C) RW 23 length 6512 ft width 150 ft
ILS 109.90 / hdg 231

(D) RW 34 length 7100 ft width 150 ft
ILS 109.70 / hdg 340

Location; KBRD
Day. 21 / Time. 23.53 Zulu
* Altimeter: 30.00
* Temperature: -01° c. -30.2°f.
* Wind from: 360° Speed 05 kn.
Dewpoint: -04° c.
Visibility: 10 Statute Miles.
Clouds: Few 12000 ft.

KBRD 212353Z AUTO 36005KT 10SM FEW120 M01/M04 A3000 RMK AO2 SLP178 T10061044 10006 21006 51004


Wind From 360°
Speed 05 kn.

jpsM music video
CHECK IT OUT

jpsM - It Moves..

 
jpsmedia.com for Web Design  worldairports.se 2018   terms of use